createdAt,value
2022-09-14T00:00:12.181Z,14.81
2022-09-14T00:01:25.203Z,14.81
2022-09-14T00:02:29.961Z,14.75
2022-09-14T00:04:06.369Z,14.75
2022-09-14T00:05:09.285Z,14.75
2022-09-14T00:06:12.321Z,14.75
2022-09-14T00:07:47.324Z,14.69
2022-09-14T00:08:50.066Z,14.69
2022-09-14T00:09:53.211Z,14.69
2022-09-14T00:11:27.761Z,14.69
2022-09-14T00:12:30.706Z,14.69
2022-09-14T00:13:33.602Z,14.69
2022-09-14T00:15:08.740Z,14.63
2022-09-14T00:16:11.738Z,14.63
2022-09-14T00:17:15.060Z,14.63
2022-09-14T00:18:49.922Z,14.56
2022-09-14T00:19:52.657Z,14.56
2022-09-14T00:20:55.453Z,14.56
2022-09-14T00:22:29.895Z,14.56
2022-09-14T00:23:32.920Z,14.56
2022-09-14T00:24:35.905Z,14.50
2022-09-14T00:26:10.949Z,14.50
2022-09-14T00:27:13.742Z,14.50
2022-09-14T00:28:16.686Z,14.50
2022-09-14T00:29:51.777Z,14.50
2022-09-14T00:30:54.748Z,14.50
2022-09-14T00:31:57.954Z,14.50
2022-09-14T00:33:33.374Z,14.44
2022-09-14T00:34:36.423Z,14.44
2022-09-14T00:35:39.427Z,14.44
2022-09-14T00:37:14.414Z,14.44
2022-09-14T00:38:17.430Z,14.44
2022-09-14T00:39:20.352Z,14.44
2022-09-14T00:40:55.771Z,14.44
2022-09-14T00:41:58.667Z,14.44
2022-09-14T00:43:01.497Z,14.44
2022-09-14T00:44:36.606Z,14.44
2022-09-14T00:45:39.841Z,14.44
2022-09-14T00:46:43.526Z,14.44
2022-09-14T00:48:18.154Z,14.44
2022-09-14T00:49:20.947Z,14.44
2022-09-14T00:50:23.749Z,14.44
2022-09-14T00:51:58.268Z,14.44
2022-09-14T00:53:01.372Z,14.44
2022-09-14T00:54:04.205Z,14.44
2022-09-14T00:55:39.289Z,14.44
2022-09-14T00:56:42.327Z,14.44
2022-09-14T00:57:45.318Z,14.44
2022-09-14T00:59:20.246Z,14.44
2022-09-14T01:00:11.761Z,14.44
2022-09-14T01:01:14.626Z,14.44
2022-09-14T01:02:18.298Z,14.44
2022-09-14T01:03:53.561Z,14.44
2022-09-14T01:04:56.518Z,14.44
2022-09-14T01:05:59.589Z,14.44
2022-09-14T01:07:34.540Z,14.44
2022-09-14T01:08:37.474Z,14.50
2022-09-14T01:09:40.465Z,14.50
2022-09-14T01:11:15.548Z,14.50
2022-09-14T01:12:18.567Z,14.50
2022-09-14T01:13:21.502Z,14.50
2022-09-14T01:14:56.184Z,14.50
2022-09-14T01:15:59.292Z,14.50
2022-09-14T01:17:02.795Z,14.50
2022-09-14T01:18:37.614Z,14.50
2022-09-14T01:19:40.648Z,14.50
2022-09-14T01:20:43.714Z,14.50
2022-09-14T01:22:18.549Z,14.56
2022-09-14T01:23:21.443Z,14.56
2022-09-14T01:24:24.504Z,14.56
2022-09-14T01:25:59.509Z,14.56
2022-09-14T01:27:02.407Z,14.56
2022-09-14T01:28:05.373Z,14.56
2022-09-14T01:29:39.894Z,14.56
2022-09-14T01:30:42.871Z,14.56
2022-09-14T01:31:46.217Z,14.56
2022-09-14T01:33:21.522Z,14.56
2022-09-14T01:34:24.717Z,14.63
2022-09-14T01:35:27.733Z,14.63
2022-09-14T01:37:02.565Z,14.63
2022-09-14T01:38:05.208Z,14.63
2022-09-14T01:39:08.227Z,14.63
2022-09-14T01:40:43.326Z,14.63
2022-09-14T01:41:46.371Z,14.63
2022-09-14T01:42:49.245Z,14.63
2022-09-14T01:44:24.275Z,14.63
2022-09-14T01:45:27.418Z,14.63
2022-09-14T01:46:31.013Z,14.63
2022-09-14T01:48:05.823Z,14.63
2022-09-14T01:49:08.569Z,14.63
2022-09-14T01:50:11.503Z,14.63
2022-09-14T01:51:46.303Z,14.63
2022-09-14T01:52:49.125Z,14.63
2022-09-14T01:53:51.955Z,14.63
2022-09-14T01:55:26.872Z,14.63
2022-09-14T01:56:29.900Z,14.63
2022-09-14T01:57:32.927Z,14.63
2022-09-14T01:59:07.426Z,14.63
2022-09-14T02:00:12.482Z,14.63
2022-09-14T02:01:15.669Z,14.56
2022-09-14T02:02:25.412Z,14.56
2022-09-14T02:04:01.506Z,14.56
2022-09-14T02:05:05.028Z,14.56
2022-09-14T02:06:07.970Z,14.56
2022-09-14T02:07:42.899Z,14.56
2022-09-14T02:08:45.779Z,14.56
2022-09-14T02:09:48.831Z,14.56
2022-09-14T02:11:23.512Z,14.50
2022-09-14T02:12:26.373Z,14.56
2022-09-14T02:13:29.213Z,14.50
2022-09-14T02:15:03.872Z,14.50
2022-09-14T02:16:06.957Z,14.50
2022-09-14T02:17:10.517Z,14.50
2022-09-14T02:18:45.358Z,14.50
2022-09-14T02:19:48.504Z,14.50
2022-09-14T02:20:51.346Z,14.50
2022-09-14T02:22:26.077Z,14.50
2022-09-14T02:23:28.969Z,14.50
2022-09-14T02:24:31.851Z,14.50
2022-09-14T02:26:06.934Z,14.50
2022-09-14T02:27:09.897Z,14.50
2022-09-14T02:28:12.711Z,14.50
2022-09-14T02:29:47.768Z,14.44
2022-09-14T02:30:50.553Z,14.50
2022-09-14T02:31:54.037Z,14.44
2022-09-14T02:33:28.871Z,14.50
2022-09-14T02:34:31.859Z,14.50
2022-09-14T02:35:34.691Z,14.50
2022-09-14T02:37:09.586Z,14.50
2022-09-14T02:38:12.621Z,14.50
2022-09-14T02:39:15.682Z,14.50
2022-09-14T02:40:51.093Z,14.50
2022-09-14T02:41:53.814Z,14.44
2022-09-14T02:42:56.652Z,14.44
2022-09-14T02:44:31.385Z,14.44
2022-09-14T02:45:34.393Z,14.44
2022-09-14T02:46:37.436Z,14.44
2022-09-14T02:48:12.880Z,14.44
2022-09-14T02:49:15.878Z,14.44
2022-09-14T02:50:18.777Z,14.44
2022-09-14T02:51:53.928Z,14.44
2022-09-14T02:52:56.882Z,14.44
2022-09-14T02:53:59.992Z,14.44
2022-09-14T02:55:34.764Z,14.44
2022-09-14T02:56:37.498Z,14.44
2022-09-14T02:57:40.504Z,14.50
2022-09-14T02:59:15.359Z,14.44
2022-09-14T03:00:12.000Z,14.50
2022-09-14T03:01:15.542Z,14.50
2022-09-14T03:02:18.982Z,14.50
2022-09-14T03:03:54.063Z,14.50
2022-09-14T03:04:57.033Z,14.50
2022-09-14T03:06:00.094Z,14.50
2022-09-14T03:07:35.222Z,14.50
2022-09-14T03:08:38.156Z,14.50
2022-09-14T03:09:41.439Z,14.50
2022-09-14T03:11:15.992Z,14.50
2022-09-14T03:12:18.858Z,14.50
2022-09-14T03:13:22.209Z,14.50
2022-09-14T03:14:57.159Z,14.50
2022-09-14T03:16:00.062Z,14.50
2022-09-14T03:17:03.572Z,14.50
2022-09-14T03:18:38.355Z,14.50
2022-09-14T03:19:41.415Z,14.50
2022-09-14T03:20:44.463Z,14.50
2022-09-14T03:22:19.449Z,14.50
2022-09-14T03:23:22.245Z,14.50
2022-09-14T03:24:25.330Z,14.50
2022-09-14T03:25:59.957Z,14.50
2022-09-14T03:27:03.074Z,14.50
2022-09-14T03:28:06.095Z,14.50
2022-09-14T03:29:40.806Z,14.50
2022-09-14T03:30:43.595Z,14.44
2022-09-14T03:31:47.128Z,14.44
2022-09-14T03:33:22.142Z,14.38
2022-09-14T03:34:25.216Z,14.38
2022-09-14T03:35:28.163Z,14.38
2022-09-14T03:37:02.805Z,14.38
2022-09-14T03:38:05.847Z,14.38
2022-09-14T03:39:09.034Z,14.38
2022-09-14T03:40:44.239Z,14.38
2022-09-14T03:41:47.105Z,14.38
2022-09-14T03:42:50.059Z,14.38
2022-09-14T03:44:25.309Z,14.44
2022-09-14T03:45:28.303Z,14.38
2022-09-14T03:46:31.446Z,14.44
2022-09-14T03:48:06.893Z,14.44
2022-09-14T03:49:09.813Z,14.44
2022-09-14T03:50:12.651Z,14.44
2022-09-14T03:51:47.416Z,14.44
2022-09-14T03:52:56.984Z,14.44
2022-09-14T03:53:59.886Z,14.44
2022-09-14T03:55:34.760Z,14.44
2022-09-14T03:56:37.854Z,14.44
2022-09-14T03:57:40.887Z,14.44
2022-09-14T03:59:15.688Z,14.44
2022-09-14T04:00:12.793Z,14.44
2022-09-14T04:01:15.715Z,14.44
2022-09-14T04:02:19.549Z,14.44
2022-09-14T04:03:55.177Z,14.44
2022-09-14T04:04:57.942Z,14.44
2022-09-14T04:05:41.293Z,14.44
2022-09-14T04:06:44.548Z,14.44
2022-09-14T04:07:47.644Z,14.44
2022-09-14T04:09:22.898Z,14.44
2022-09-14T04:10:26.003Z,14.44
2022-09-14T04:11:28.862Z,14.44
2022-09-14T04:13:03.560Z,14.44
2022-09-14T04:14:06.924Z,14.44
2022-09-14T04:15:10.150Z,14.44
2022-09-14T04:16:45.232Z,14.44
2022-09-14T04:17:48.271Z,14.44
2022-09-14T04:18:51.130Z,14.44
2022-09-14T04:20:26.208Z,14.50
2022-09-14T04:21:29.201Z,14.50
2022-09-14T04:22:32.189Z,14.50
2022-09-14T04:24:15.895Z,14.50
2022-09-14T04:25:23.681Z,14.50
2022-09-14T04:26:26.856Z,14.50
2022-09-14T04:28:19.546Z,14.50
2022-09-14T04:29:23.235Z,14.50
2022-09-14T04:30:26.006Z,14.50
2022-09-14T04:32:01.443Z,14.50
2022-09-14T04:33:09.326Z,14.50
2022-09-14T04:34:12.562Z,14.50
2022-09-14T04:35:47.264Z,14.50
2022-09-14T04:36:50.171Z,14.50
2022-09-14T04:37:53.151Z,14.50
2022-09-14T04:39:27.835Z,14.50
2022-09-14T04:40:30.992Z,14.50
2022-09-14T04:41:34.074Z,14.50
2022-09-14T04:43:08.575Z,14.50
2022-09-14T04:44:11.746Z,14.44
2022-09-14T04:45:14.816Z,14.50
2022-09-14T04:46:50.013Z,14.50
2022-09-14T04:47:53.432Z,14.44
2022-09-14T04:48:56.445Z,14.44
2022-09-14T04:50:31.707Z,14.44
2022-09-14T04:51:34.789Z,14.44
2022-09-14T04:52:37.860Z,14.44
2022-09-14T04:54:12.662Z,14.44
2022-09-14T04:55:15.689Z,14.44
2022-09-14T04:56:18.454Z,14.44
2022-09-14T04:57:53.299Z,14.44
2022-09-14T04:58:56.401Z,14.44
2022-09-14T04:59:59.171Z,14.44
2022-09-14T05:00:12.127Z,14.44
2022-09-14T05:01:15.185Z,14.44
2022-09-14T05:02:18.726Z,14.44
2022-09-14T05:03:54.865Z,14.44
2022-09-14T05:04:57.929Z,14.44
2022-09-14T05:06:00.967Z,14.50
2022-09-14T05:07:35.793Z,14.44
2022-09-14T05:08:38.564Z,14.44
2022-09-14T05:09:41.569Z,14.44
2022-09-14T05:11:16.759Z,14.44
2022-09-14T05:12:19.885Z,14.44
2022-09-14T05:13:22.809Z,14.44
2022-09-14T05:15:02.724Z,14.44
2022-09-14T05:16:05.818Z,14.44
2022-09-14T05:17:09.725Z,14.44
2022-09-14T05:18:44.626Z,14.44
2022-09-14T05:19:47.728Z,14.44
2022-09-14T05:20:50.594Z,14.38
2022-09-14T05:22:31.726Z,14.38
2022-09-14T05:23:34.796Z,14.38
2022-09-14T05:24:37.835Z,14.38
2022-09-14T05:26:12.970Z,14.38
2022-09-14T05:27:15.850Z,14.38
2022-09-14T05:28:18.931Z,14.38
2022-09-14T05:29:54.009Z,14.38
2022-09-14T05:30:57.099Z,14.38
2022-09-14T05:32:00.439Z,14.38
2022-09-14T05:33:38.777Z,14.38
2022-09-14T05:34:41.827Z,14.38
2022-09-14T05:35:44.807Z,14.38
2022-09-14T05:37:19.601Z,14.38
2022-09-14T05:38:22.721Z,14.38
2022-09-14T05:39:26.090Z,14.38
2022-09-14T05:41:01.694Z,14.38
2022-09-14T05:42:04.640Z,14.38
2022-09-14T05:43:07.468Z,14.38
2022-09-14T05:44:42.374Z,14.38
2022-09-14T05:45:45.079Z,14.38
2022-09-14T05:46:48.987Z,14.38
2022-09-14T05:48:25.635Z,14.38
2022-09-14T05:49:28.396Z,14.38
2022-09-14T05:50:31.202Z,14.38
2022-09-14T05:52:06.030Z,14.38
2022-09-14T05:53:09.031Z,14.38
2022-09-14T05:54:12.219Z,14.38
2022-09-14T05:55:47.041Z,14.38
2022-09-14T05:56:50.037Z,14.38
2022-09-14T05:57:52.944Z,14.38
2022-09-14T05:59:27.748Z,14.38
2022-09-14T06:00:12.888Z,14.38
2022-09-14T06:01:15.838Z,14.38
2022-09-14T06:02:19.865Z,14.38
2022-09-14T06:03:55.048Z,14.44
2022-09-14T06:04:57.976Z,14.44
2022-09-14T06:06:01.721Z,14.44
2022-09-14T06:08:03.379Z,14.44
2022-09-14T06:09:06.438Z,14.50
2022-09-14T06:10:13.788Z,14.50
2022-09-14T06:11:48.782Z,14.50
2022-09-14T06:12:55.384Z,14.50
2022-09-14T06:13:58.398Z,14.56
2022-09-14T06:15:33.227Z,14.56
2022-09-14T06:16:36.174Z,14.63
2022-09-14T06:17:39.280Z,14.63
2022-09-14T06:19:13.933Z,14.63
2022-09-14T06:20:16.827Z,14.69
2022-09-14T06:21:20.010Z,14.69
2022-09-14T06:22:54.877Z,14.69
2022-09-14T06:23:57.928Z,14.69
2022-09-14T06:25:00.649Z,14.69
2022-09-14T06:26:35.578Z,14.69
2022-09-14T06:27:38.377Z,14.69
2022-09-14T06:28:41.051Z,14.69
2022-09-14T06:30:15.688Z,14.69
2022-09-14T06:31:18.808Z,14.69
2022-09-14T06:32:21.656Z,14.69
2022-09-14T06:33:56.431Z,14.69
2022-09-14T06:34:59.362Z,14.69
2022-09-14T06:36:07.841Z,14.69
2022-09-14T06:37:42.233Z,14.69
2022-09-14T06:38:45.348Z,14.69
2022-09-14T06:39:48.428Z,14.69
2022-09-14T06:41:23.640Z,14.69
2022-09-14T06:42:26.719Z,14.63
2022-09-14T06:43:29.758Z,14.63
2022-09-14T06:45:04.859Z,14.63
2022-09-14T06:46:07.755Z,14.63
2022-09-14T06:47:10.536Z,14.56
2022-09-14T06:48:45.154Z,14.56
2022-09-14T06:49:47.945Z,14.56
2022-09-14T06:50:51.019Z,14.56
2022-09-14T06:52:25.595Z,14.50
2022-09-14T06:53:31.304Z,14.50
2022-09-14T06:54:34.409Z,14.50
2022-09-14T06:56:09.188Z,14.50
2022-09-14T06:57:12.189Z,14.44
2022-09-14T06:58:18.010Z,14.44
2022-09-14T06:59:52.785Z,14.50
2022-09-14T07:00:12.264Z,14.50
2022-09-14T07:01:15.223Z,14.50
2022-09-14T07:02:18.246Z,14.50
2022-09-14T07:03:54.083Z,14.56
2022-09-14T07:04:57.126Z,14.56
2022-09-14T07:06:00.000Z,14.56
2022-09-14T07:07:35.036Z,14.56
2022-09-14T07:08:37.934Z,14.63
2022-09-14T07:09:41.368Z,14.63
2022-09-14T07:11:16.260Z,14.69
2022-09-14T07:12:19.222Z,14.69
2022-09-14T07:13:22.137Z,14.69
2022-09-14T07:14:56.805Z,14.75
2022-09-14T07:15:59.830Z,14.81
2022-09-14T07:17:02.915Z,14.81
2022-09-14T07:18:37.644Z,14.81
2022-09-14T07:19:40.508Z,14.88
2022-09-14T07:20:43.391Z,14.88
2022-09-14T07:22:23.296Z,14.94
2022-09-14T07:23:26.180Z,14.94
2022-09-14T07:24:29.111Z,14.94
2022-09-14T07:26:04.185Z,15.00
2022-09-14T07:27:07.155Z,14.94
2022-09-14T07:28:09.998Z,14.94
2022-09-14T07:29:45.641Z,15.00
2022-09-14T07:30:48.790Z,15.00
2022-09-14T07:31:56.819Z,15.00
2022-09-14T07:33:31.596Z,15.00
2022-09-14T07:34:34.900Z,15.00
2022-09-14T07:35:37.935Z,15.06
2022-09-14T07:37:17.552Z,15.06
2022-09-14T07:38:35.604Z,15.13
2022-09-14T07:39:51.760Z,15.19
2022-09-14T07:41:27.144Z,15.19
2022-09-14T07:42:30.027Z,15.19
2022-09-14T07:43:38.110Z,15.19
2022-09-14T07:45:13.056Z,15.19
2022-09-14T07:46:16.449Z,15.19
2022-09-14T07:47:19.977Z,15.19
2022-09-14T07:48:54.983Z,15.19
2022-09-14T07:49:57.829Z,15.19
2022-09-14T07:51:01.001Z,15.19
2022-09-14T07:52:38.742Z,15.19
2022-09-14T07:53:41.626Z,15.19
2022-09-14T07:54:44.567Z,15.19
2022-09-14T07:56:19.416Z,15.19
2022-09-14T07:57:39.394Z,15.19
2022-09-14T07:59:03.319Z,15.25
2022-09-14T08:00:11.942Z,15.25
2022-09-14T08:01:15.271Z,15.25
2022-09-14T08:02:18.827Z,15.31
2022-09-14T08:03:54.205Z,15.31
2022-09-14T08:05:02.748Z,15.31
2022-09-14T08:06:05.696Z,15.38
2022-09-14T08:07:40.580Z,15.44
2022-09-14T08:08:43.385Z,15.44
2022-09-14T08:09:46.567Z,15.50
2022-09-14T08:11:21.439Z,15.50
2022-09-14T08:12:24.483Z,15.56
2022-09-14T08:13:27.361Z,15.56
2022-09-14T08:15:02.334Z,15.63
2022-09-14T08:16:09.250Z,15.63
2022-09-14T08:17:12.563Z,15.63
2022-09-14T08:18:47.696Z,15.63
2022-09-14T08:19:50.648Z,15.63
2022-09-14T08:20:53.590Z,15.63
2022-09-14T08:22:33.543Z,15.63
2022-09-14T08:23:36.390Z,15.63
2022-09-14T08:24:39.249Z,15.63
2022-09-14T08:26:14.399Z,15.69
2022-09-14T08:27:17.433Z,15.69
2022-09-14T08:28:20.643Z,15.69
2022-09-14T08:29:55.658Z,15.75
2022-09-14T08:30:58.595Z,15.75
2022-09-14T08:32:01.973Z,15.75
2022-09-14T08:33:42.181Z,15.75
2022-09-14T08:34:45.092Z,15.75
2022-09-14T08:35:57.986Z,15.81
2022-09-14T08:37:32.991Z,15.81
2022-09-14T08:38:35.962Z,15.81
2022-09-14T08:39:38.802Z,15.88
2022-09-14T08:41:20.606Z,15.88
2022-09-14T08:42:23.395Z,15.88
2022-09-14T08:43:26.487Z,15.94
2022-09-14T08:45:02.523Z,15.94
2022-09-14T08:46:07.580Z,15.94
2022-09-14T08:47:10.341Z,15.94
2022-09-14T08:48:45.311Z,15.94
2022-09-14T08:49:48.326Z,16.00
2022-09-14T08:50:51.226Z,16.00
2022-09-14T08:52:26.077Z,16.06
2022-09-14T08:53:29.155Z,16.06
2022-09-14T08:54:32.555Z,16.13
2022-09-14T08:56:07.424Z,16.13
2022-09-14T08:57:10.469Z,16.13
2022-09-14T08:58:13.444Z,16.19
2022-09-14T08:59:57.384Z,16.25
2022-09-14T09:00:12.506Z,16.25
2022-09-14T09:01:15.918Z,16.25
2022-09-14T09:02:18.969Z,16.25
2022-09-14T09:03:53.947Z,16.25
2022-09-14T09:04:57.343Z,16.25
2022-09-14T09:06:00.452Z,16.25
2022-09-14T09:07:39.725Z,16.25
2022-09-14T09:08:42.621Z,16.25
2022-09-14T09:09:46.011Z,16.25
2022-09-14T09:11:20.632Z,16.25
2022-09-14T09:12:23.389Z,16.25
2022-09-14T09:13:26.204Z,16.31
2022-09-14T09:15:04.619Z,16.31
2022-09-14T09:16:07.878Z,16.31
2022-09-14T09:17:11.326Z,16.38
2022-09-14T09:18:46.100Z,16.38
2022-09-14T09:19:49.000Z,16.44
2022-09-14T09:20:52.204Z,16.44
2022-09-14T09:22:27.007Z,16.50
2022-09-14T09:23:30.013Z,16.50
2022-09-14T09:24:36.915Z,16.50
2022-09-14T09:26:12.493Z,16.56
2022-09-14T09:27:15.525Z,16.56
2022-09-14T09:28:18.666Z,16.56
2022-09-14T09:29:53.344Z,16.56
2022-09-14T09:30:56.477Z,16.56
2022-09-14T09:32:06.544Z,16.63
2022-09-14T09:33:41.473Z,16.63
2022-09-14T09:34:44.705Z,16.63
2022-09-14T09:35:47.960Z,16.63
2022-09-14T09:37:22.774Z,16.63
2022-09-14T09:38:25.840Z,16.63
2022-09-14T09:39:28.893Z,16.69
2022-09-14T09:41:04.618Z,16.69
2022-09-14T09:42:07.585Z,16.75
2022-09-14T09:43:10.496Z,16.75
2022-09-14T09:45:13.613Z,16.75
2022-09-14T09:46:16.617Z,16.75
2022-09-14T09:47:20.006Z,16.75
2022-09-14T09:48:54.840Z,16.81
2022-09-14T09:49:57.960Z,16.81
2022-09-14T09:51:01.424Z,16.88
2022-09-14T09:52:42.008Z,16.88
2022-09-14T09:53:51.061Z,16.88
2022-09-14T09:54:54.130Z,16.88
2022-09-14T09:56:29.071Z,16.94
2022-09-14T09:57:31.934Z,16.94
2022-09-14T09:58:34.722Z,16.94
2022-09-14T10:00:12.413Z,16.94
2022-09-14T10:01:15.532Z,16.94
2022-09-14T10:02:19.429Z,16.94
2022-09-14T10:03:54.778Z,16.94
2022-09-14T10:04:57.782Z,16.94
2022-09-14T10:06:00.958Z,16.94
2022-09-14T10:07:35.789Z,16.94
2022-09-14T10:08:44.406Z,16.94
2022-09-14T10:09:47.351Z,16.94
2022-09-14T10:11:22.103Z,16.88
2022-09-14T10:12:25.103Z,16.94
2022-09-14T10:13:27.923Z,16.88
2022-09-14T10:15:07.907Z,16.94
2022-09-14T10:16:10.931Z,16.88
2022-09-14T10:17:14.557Z,16.94
2022-09-14T10:18:49.603Z,16.88
2022-09-14T10:19:52.819Z,16.94
2022-09-14T10:20:55.767Z,16.94
2022-09-14T10:22:30.622Z,16.94
2022-09-14T10:23:33.731Z,16.94
2022-09-14T10:24:36.908Z,17.00
2022-09-14T10:26:12.059Z,17.06
2022-09-14T10:27:15.030Z,17.06
2022-09-14T10:28:23.966Z,17.13
2022-09-14T10:29:58.818Z,17.13
2022-09-14T10:31:01.772Z,17.19
2022-09-14T10:32:05.508Z,17.19
2022-09-14T10:33:40.338Z,17.25
2022-09-14T10:34:43.345Z,17.25
2022-09-14T10:35:46.314Z,17.31
2022-09-14T10:37:21.222Z,17.31
2022-09-14T10:38:24.318Z,17.38
2022-09-14T10:39:27.463Z,17.38
2022-09-14T10:41:03.625Z,17.44
2022-09-14T10:42:06.742Z,17.50
2022-09-14T10:43:09.661Z,17.50
2022-09-14T10:44:44.604Z,17.56
2022-09-14T10:45:47.858Z,17.56
2022-09-14T10:46:51.353Z,17.56
2022-09-14T10:48:32.200Z,17.50
2022-09-14T10:49:35.613Z,17.50
2022-09-14T10:50:38.411Z,17.50
2022-09-14T10:52:13.212Z,17.56
2022-09-14T10:53:16.239Z,17.56
2022-09-14T10:54:18.971Z,17.56
2022-09-14T10:55:54.108Z,17.63
2022-09-14T10:56:57.242Z,17.63
2022-09-14T10:58:00.246Z,17.63
2022-09-14T10:59:42.838Z,17.69
2022-09-14T11:00:11.902Z,17.69
2022-09-14T11:01:15.027Z,17.69
2022-09-14T11:02:18.987Z,17.75
2022-09-14T11:03:55.211Z,17.81
2022-09-14T11:04:58.218Z,17.81
2022-09-14T11:06:01.139Z,17.81
2022-09-14T11:07:36.041Z,17.88
2022-09-14T11:08:39.244Z,17.94
2022-09-14T11:09:42.229Z,17.94
2022-09-14T11:11:17.344Z,18.00
2022-09-14T11:12:20.826Z,18.00
2022-09-14T11:13:23.819Z,18.00
2022-09-14T11:14:58.904Z,18.06
2022-09-14T11:16:01.875Z,18.06
2022-09-14T11:17:05.391Z,18.06
2022-09-14T11:18:40.311Z,18.13
2022-09-14T11:19:43.416Z,18.13
2022-09-14T11:20:46.418Z,18.13
2022-09-14T11:22:21.363Z,18.13
2022-09-14T11:23:24.279Z,18.13
2022-09-14T11:24:27.292Z,18.06
2022-09-14T11:26:02.273Z,18.06
2022-09-14T11:27:05.128Z,18.06
2022-09-14T11:28:08.005Z,18.06
2022-09-14T11:29:42.786Z,18.06
2022-09-14T11:30:45.989Z,18.06
2022-09-14T11:32:04.150Z,18.06
2022-09-14T11:33:52.190Z,18.00
2022-09-14T11:34:55.106Z,18.00
2022-09-14T11:35:58.176Z,18.00
2022-09-14T11:37:33.039Z,18.06
2022-09-14T11:38:36.031Z,18.06
2022-09-14T11:39:41.947Z,18.06
2022-09-14T11:41:17.567Z,18.13
2022-09-14T11:42:20.671Z,18.13
2022-09-14T11:43:23.546Z,18.13
2022-09-14T11:44:58.697Z,18.19
2022-09-14T11:46:01.635Z,18.25
2022-09-14T11:47:05.250Z,18.25
2022-09-14T11:49:00.577Z,18.31
2022-09-14T11:50:03.678Z,18.31
2022-09-14T11:51:06.639Z,18.31
2022-09-14T11:52:41.402Z,18.31
2022-09-14T11:53:44.312Z,18.25
2022-09-14T11:54:47.439Z,18.25
2022-09-14T11:56:22.429Z,18.31
2022-09-14T11:57:25.608Z,18.31
2022-09-14T11:58:28.401Z,18.31
2022-09-14T12:00:12.597Z,18.38
2022-09-14T12:01:15.621Z,18.44
2022-09-14T12:02:18.621Z,18.44
2022-09-14T12:03:54.643Z,18.50
2022-09-14T12:04:58.323Z,18.56
2022-09-14T12:06:01.208Z,18.56
2022-09-14T12:07:36.234Z,18.56
2022-09-14T12:08:39.597Z,18.56
2022-09-14T12:09:42.583Z,18.63
2022-09-14T12:11:20.758Z,18.63
2022-09-14T12:12:23.854Z,18.63
2022-09-14T12:13:26.902Z,18.63
2022-09-14T12:15:01.941Z,18.63
2022-09-14T12:16:05.060Z,18.63
2022-09-14T12:17:37.869Z,18.63
2022-09-14T12:19:14.094Z,18.63
2022-09-14T12:20:20.242Z,18.63
2022-09-14T12:21:23.558Z,18.63
2022-09-14T12:22:58.649Z,18.63
2022-09-14T12:24:01.857Z,18.63
2022-09-14T12:25:04.972Z,18.56
2022-09-14T12:26:40.035Z,18.56
2022-09-14T12:27:42.869Z,18.56
2022-09-14T12:28:45.776Z,18.56
2022-09-14T12:30:20.584Z,18.56
2022-09-14T12:31:27.328Z,18.56
2022-09-14T12:32:30.703Z,18.56
2022-09-14T12:34:05.415Z,18.56
2022-09-14T12:35:08.365Z,18.56
2022-09-14T12:36:11.311Z,18.63
2022-09-14T12:37:52.505Z,18.63
2022-09-14T12:38:55.567Z,18.63
2022-09-14T12:39:58.706Z,18.69
2022-09-14T12:41:33.955Z,18.69
2022-09-14T12:42:37.047Z,18.69
2022-09-14T12:43:40.094Z,18.69
2022-09-14T12:45:15.566Z,18.75
2022-09-14T12:46:18.561Z,18.75
2022-09-14T12:47:22.353Z,18.75
2022-09-14T12:48:57.162Z,18.75
2022-09-14T12:50:00.171Z,18.75
2022-09-14T12:51:03.358Z,18.75
2022-09-14T12:52:38.461Z,18.81
2022-09-14T12:53:41.451Z,18.81
2022-09-14T12:54:47.064Z,18.81
2022-09-14T12:56:25.127Z,18.88
2022-09-14T12:57:28.247Z,18.94
2022-09-14T12:58:31.127Z,19.06
2022-09-14T13:00:12.238Z,19.13
2022-09-14T13:01:20.315Z,19.19
2022-09-14T13:02:24.792Z,19.19
2022-09-14T13:04:00.836Z,19.19
2022-09-14T13:05:03.528Z,19.19
2022-09-14T13:06:06.588Z,19.25
2022-09-14T13:07:41.424Z,19.38
2022-09-14T13:08:44.317Z,19.44
2022-09-14T13:09:50.296Z,19.50
2022-09-14T13:11:25.170Z,19.63
2022-09-14T13:12:28.080Z,19.69
2022-09-14T13:13:31.209Z,19.69
2022-09-14T13:15:06.076Z,19.81
2022-09-14T13:16:09.557Z,19.88
2022-09-14T13:17:12.929Z,19.94
2022-09-14T13:18:48.078Z,19.94
2022-09-14T13:19:53.725Z,20.00
2022-09-14T13:20:56.828Z,20.19
2022-09-14T13:22:31.664Z,20.25
2022-09-14T13:23:34.795Z,20.38
2022-09-14T13:24:37.750Z,20.31
2022-09-14T13:26:12.633Z,20.31
2022-09-14T13:27:15.827Z,20.38
2022-09-14T13:28:18.733Z,20.38
2022-09-14T13:29:53.610Z,20.38
2022-09-14T13:30:57.063Z,20.31
2022-09-14T13:32:03.663Z,20.31
2022-09-14T13:33:39.071Z,20.25
2022-09-14T13:34:42.122Z,20.25
2022-09-14T13:35:45.150Z,20.19
2022-09-14T13:37:20.029Z,20.19
2022-09-14T13:38:28.858Z,20.19
2022-09-14T13:39:31.759Z,20.25
2022-09-14T13:41:07.314Z,20.31
2022-09-14T13:42:10.614Z,20.31
2022-09-14T13:43:13.679Z,20.31
2022-09-14T13:44:48.788Z,20.19
2022-09-14T13:45:52.043Z,20.19
2022-09-14T13:47:01.106Z,20.25
2022-09-14T13:48:36.060Z,20.31
2022-09-14T13:49:39.081Z,20.31
2022-09-14T13:50:42.225Z,20.31
2022-09-14T13:52:17.104Z,20.44
2022-09-14T13:53:50.946Z,20.44
2022-09-14T13:54:53.757Z,20.44
2022-09-14T13:56:28.573Z,20.38
2022-09-14T13:57:31.528Z,20.38
2022-09-14T13:58:35.763Z,20.44
2022-09-14T14:00:11.997Z,20.44
2022-09-14T14:01:15.055Z,20.44
2022-09-14T14:02:18.650Z,20.44
2022-09-14T14:03:58.574Z,20.38
2022-09-14T14:05:05.287Z,20.38
2022-09-14T14:06:08.569Z,20.38
2022-09-14T14:07:43.638Z,20.44
2022-09-14T14:08:46.423Z,20.44
2022-09-14T14:09:49.523Z,20.38
2022-09-14T14:11:27.306Z,20.44
2022-09-14T14:12:30.324Z,20.44
2022-09-14T14:13:37.045Z,20.44
2022-09-14T14:15:17.496Z,20.50
2022-09-14T14:16:20.491Z,20.56
2022-09-14T14:17:23.842Z,20.81
2022-09-14T14:18:58.883Z,20.94
2022-09-14T14:20:01.989Z,21.06
2022-09-14T14:21:05.075Z,21.31
2022-09-14T14:22:39.932Z,21.31
2022-09-14T14:23:56.753Z,21.31
2022-09-14T14:25:46.178Z,21.25
2022-09-14T14:27:21.433Z,21.13
2022-09-14T14:28:24.491Z,21.13
2022-09-14T14:29:27.532Z,21.06
2022-09-14T14:31:07.710Z,21.00
2022-09-14T14:32:11.987Z,20.94
2022-09-14T14:33:15.187Z,20.94
2022-09-14T14:34:50.069Z,20.81
2022-09-14T14:35:52.924Z,20.75
2022-09-14T14:36:56.090Z,20.75
2022-09-14T14:38:31.007Z,20.56
2022-09-14T14:39:34.306Z,20.50
2022-09-14T14:40:42.414Z,20.50
2022-09-14T14:42:18.178Z,20.56
2022-09-14T14:43:20.991Z,20.63
2022-09-14T14:44:24.362Z,20.69
2022-09-14T14:45:59.206Z,20.75
2022-09-14T14:47:02.586Z,20.81
2022-09-14T14:48:05.423Z,20.81
2022-09-14T14:49:40.339Z,20.69
2022-09-14T14:50:43.391Z,20.56
2022-09-14T14:51:46.603Z,20.44
2022-09-14T14:53:21.612Z,20.38
2022-09-14T14:54:24.788Z,20.38
2022-09-14T14:55:28.068Z,20.38
2022-09-14T14:57:03.149Z,20.38
2022-09-14T14:58:06.626Z,20.38
2022-09-14T14:59:11.356Z,20.31
2022-09-14T15:00:12.444Z,20.19
2022-09-14T15:01:15.838Z,20.13
2022-09-14T15:02:19.234Z,20.06
2022-09-14T15:03:54.824Z,20.06
2022-09-14T15:04:57.917Z,20.13
2022-09-14T15:06:01.064Z,20.13
2022-09-14T15:07:37.798Z,20.19
2022-09-14T15:08:41.148Z,20.25
2022-09-14T15:09:44.190Z,20.25
2022-09-14T15:11:19.330Z,20.25
2022-09-14T15:12:22.540Z,20.25
2022-09-14T15:13:25.293Z,20.25
2022-09-14T15:15:04.346Z,20.25
2022-09-14T15:16:07.414Z,20.13
2022-09-14T15:17:10.910Z,20.06
2022-09-14T15:18:45.542Z,20.06
2022-09-14T15:19:48.290Z,20.00
2022-09-14T15:20:51.590Z,20.00
2022-09-14T15:22:26.422Z,20.06
2022-09-14T15:23:29.301Z,20.06
2022-09-14T15:24:32.298Z,20.13
2022-09-14T15:26:07.244Z,20.13
2022-09-14T15:27:10.193Z,20.13
2022-09-14T15:28:13.279Z,20.13
2022-09-14T15:29:48.216Z,20.13
2022-09-14T15:30:51.467Z,20.13
2022-09-14T15:32:00.200Z,20.13
2022-09-14T15:33:35.919Z,20.13
2022-09-14T15:34:38.730Z,20.13
2022-09-14T15:35:41.958Z,20.19
2022-09-14T15:37:16.933Z,20.13
2022-09-14T15:38:20.015Z,20.13
2022-09-14T15:39:23.107Z,20.13
2022-09-14T15:41:02.911Z,20.13
2022-09-14T15:42:05.738Z,20.13
2022-09-14T15:43:08.832Z,20.13
2022-09-14T15:44:43.848Z,20.06
2022-09-14T15:45:46.912Z,20.06
2022-09-14T15:46:50.571Z,20.06
2022-09-14T15:48:25.470Z,20.00
2022-09-14T15:49:28.517Z,19.94
2022-09-14T15:50:31.366Z,19.94
2022-09-14T15:52:06.274Z,19.88